Time;durP1;ratioP1;P1;durP2;ratioP2;P2;SDS_P1;SDS_P2;PMS_P1;PMS_P2;Temp;Humidity;BMP_temperature;BMP_pressure;BME280_temperature;BME280_humidity;BME280_pressure;Samples;Min_cycle;Max_cycle;Signal;HPM_P1;HPM_P2
2023/06/14 00:00:04;;;;;;;;;;;;;;;24.46;38.03;100775.84;4112056;28;19926;-63
2023/06/14 00:02:08;;;;;;;;;;;;;;;24.45;37.66;100775.94;4112879;28;19933;-63
2023/06/14 00:04:10;;;;;;;;;;;;;;;24.43;38.16;100775.28;4113045;28;19984;-64
2023/06/14 00:06:11;;;;;;;;;;;;;;;24.42;38.01;100773.56;4113225;28;20025;-64
2023/06/14 00:08:13;;;;;;;;;;;;;;;24.40;38.04;100779.94;4112930;28;19932;-64
2023/06/14 00:10:15;;;;;;;;;;;;;;;24.38;38.49;100775.69;4111798;28;19926;-64
2023/06/14 00:12:17;;;;;;;;;;;;;;;24.37;38.11;100772.16;4113099;28;19926;-64
2023/06/14 00:14:18;;;;;;;;;;;;;;;24.35;38.47;100766.09;4113062;28;20243;-64
2023/06/14 00:16:20;;;;;;;;;;;;;;;24.35;38.69;100778.66;4112885;28;19930;-64
2023/06/14 00:18:23;;;;;;;;;;;;;;;24.33;38.52;100773.44;4112259;28;19979;-64
2023/06/14 00:20:26;;;;;;;;;;;;;;;24.32;38.70;100778.97;4112776;28;19980;-64
2023/06/14 00:22:28;;;;;;;;;;;;;;;24.32;38.38;100774.41;4112918;28;19948;-63
2023/06/14 00:24:30;;;;;;;;;;;;;;;24.29;38.91;100774.72;4112536;28;19961;-64
2023/06/14 00:26:32;;;;;;;;;;;;;;;24.28;38.74;100774.84;4112748;28;19930;-63
2023/06/14 00:28:33;;;;;;;;;;;;;;;24.26;38.34;100775.00;4111769;28;19930;-63
2023/06/14 00:30:35;;;;;;;;;;;;;;;24.27;38.83;100781.25;4112401;28;20021;-64
2023/06/14 00:32:36;;;;;;;;;;;;;;;24.25;38.81;100781.34;4112891;28;20410;-63
2023/06/14 00:34:38;;;;;;;;;;;;;;;24.24;38.62;100779.66;4112632;28;19926;-64
2023/06/14 00:36:40;;;;;;;;;;;;;;;24.23;38.33;100786.06;4113058;28;20399;-63
2023/06/14 00:38:41;;;;;;;;;;;;;;;24.22;38.52;100779.81;4111400;28;19930;-62
2023/06/14 00:40:43;;;;;;;;;;;;;;;24.20;38.94;100773.72;4112304;28;20008;-63
2023/06/14 00:42:44;;;;;;;;;;;;;;;24.21;38.99;100785.34;4113161;28;19936;-63
2023/06/14 00:44:46;;;;;;;;;;;;;;;24.20;38.75;100783.63;4115400;28;20410;-64
2023/06/14 00:46:47;;;;;;;;;;;;;;;24.20;39.01;100786.31;4115332;28;19926;-63
2023/06/14 00:48:49;;;;;;;;;;;;;;;24.19;38.74;100788.16;4113160;28;20034;-62
2023/06/14 00:50:52;;;;;;;;;;;;;;;24.18;38.64;100796.34;4115391;28;19938;-62
2023/06/14 00:52:54;;;;;;;;;;;;;;;24.19;39.14;100795.38;4115072;28;19933;-63
2023/06/14 00:54:55;;;;;;;;;;;;;;;24.16;38.92;100796.50;4115454;28;19926;-61
2023/06/14 00:56:57;;;;;;;;;;;;;;;24.14;39.04;100790.41;4115385;28;20423;-63
2023/06/14 00:59:00;;;;;;;;;;;;;;;24.14;39.20;100795.78;4114580;28;19962;-63
2023/06/14 01:01:02;;;;;;;;;;;;;;;24.13;39.03;100787.88;4115060;28;19926;-64
2023/06/14 01:03:03;;;;;;;;;;;;;;;24.13;38.92;100795.94;4115267;28;19980;-63
2023/06/14 01:05:10;;;;;;;;;;;;;;;24.11;38.94;100790.72;4113976;28;19945;-64
2023/06/14 01:07:21;;;;;;;;;;;;;;;24.11;39.16;100792.53;4114960;28;19930;-63
2023/06/14 01:09:41;;;;;;;;;;;;;;;24.10;39.16;100802.44;4114065;28;19933;-64
2023/06/14 01:12:01;;;;;;;;;;;;;;;24.08;39.33;100799.03;4115324;28;19930;-64
2023/06/14 01:14:07;;;;;;;;;;;;;;;24.06;39.18;100803.72;4115068;28;20033;-62
2023/06/14 01:16:10;;;;;;;;;;;;;;;24.06;39.21;100793.81;4114910;28;19926;-62
2023/06/14 01:18:17;;;;;;;;;;;;;;;24.05;39.46;100794.81;4115250;28;19983;-63
2023/06/14 01:20:22;;;;;;;;;;;;;;;24.04;39.30;100790.41;4114350;28;19980;-63
2023/06/14 01:22:27;;;;;;;;;;;;;;;24.04;39.31;100789.56;4114747;28;19971;-64
2023/06/14 01:24:31;;;;;;;;;;;;;;;24.03;39.06;100794.09;4115148;28;20383;-62
2023/06/14 01:26:41;;;;;;;;;;;;;;;24.03;39.31;100794.09;4114824;28;19933;-63
2023/06/14 01:28:48;;;;;;;;;;;;;;;24.02;39.31;100796.91;4113924;28;20387;-63
2023/06/14 01:30:51;;;;;;;;;;;;;;;24.02;39.49;100796.91;4114466;28;19958;-62
2023/06/14 01:32:54;;;;;;;;;;;;;;;24.01;39.27;100795.22;4114984;28;19934;-63
2023/06/14 01:34:56;;;;;;;;;;;;;;;24.00;39.41;100796.19;4115012;28;20284;-63
2023/06/14 01:37:00;;;;;;;;;;;;;;;23.99;39.70;100791.84;4114659;28;19972;-62
2023/06/14 01:39:01;;;;;;;;;;;;;;;23.98;39.29;100793.66;4114233;28;19942;-62
2023/06/14 01:41:03;;;;;;;;;;;;;;;23.97;39.33;100789.28;4114760;28;19926;-62
2023/06/14 01:43:06;;;;;;;;;;;;;;;23.97;39.41;100791.13;4114814;28;19926;-62
2023/06/14 01:45:09;;;;;;;;;;;;;;;23.96;39.72;100787.56;4197525;28;20018;-62
2023/06/14 01:47:11;;;;;;;;;;;;;;;23.95;39.62;100796.66;4114804;28;19949;-62
2023/06/14 01:49:13;;;;;;;;;;;;;;;23.95;39.60;100790.41;4196624;28;19924;-63
2023/06/14 01:51:14;;;;;;;;;;;;;;;23.94;39.65;100792.25;4114251;28;20406;-62
2023/06/14 01:53:16;;;;;;;;;;;;;;;23.93;39.82;100791.38;4114616;28;19932;-63
2023/06/14 01:55:17;;;;;;;;;;;;;;;23.94;39.87;100797.63;4114476;28;19926;-62
2023/06/14 01:57:20;;;;;;;;;;;;;;;23.92;39.61;100792.38;4113457;28;19926;-63
2023/06/14 01:59:22;;;;;;;;;;;;;;;23.92;39.54;100794.19;4113813;28;19970;-64
2023/06/14 02:01:23;;;;;;;;;;;;;;;23.93;39.69;100798.63;4114620;28;19926;-63
2023/06/14 02:03:25;;;;;;;;;;;;;;;23.92;39.56;100796.88;4114542;28;19926;-62
2023/06/14 02:05:27;;;;;;;;;;;;;;;23.90;39.73;100794.34;4114174;28;19960;-63
2023/06/14 02:07:28;;;;;;;;;;;;;;;23.90;39.79;100791.66;4114510;28;19973;-63
2023/06/14 02:09:30;;;;;;;;;;;;;;;23.88;39.74;100796.31;4113427;28;19926;-63
2023/06/14 02:11:31;;;;;;;;;;;;;;;23.88;39.80;100800.84;4145477;28;19929;-63
2023/06/14 02:13:34;;;;;;;;;;;;;;;23.87;40.15;100788.41;4114584;28;20280;-63
2023/06/14 02:15:35;;;;;;;;;;;;;;;23.85;39.91;100796.59;4114347;28;19961;-63
2023/06/14 02:17:37;;;;;;;;;;;;;;;23.85;39.79;100795.75;4114367;28;19926;-63
2023/06/14 02:19:38;;;;;;;;;;;;;;;23.84;40.13;100794.91;4113191;28;19933;-64
2023/06/14 02:21:40;;;;;;;;;;;;;;;23.85;39.81;100801.97;4114258;28;19930;-63
2023/06/14 02:23:42;;;;;;;;;;;;;;;23.85;39.97;100803.78;4114172;28;19930;-63
2023/06/14 02:25:45;;;;;;;;;;;;;;;23.83;40.20;100803.94;4114233;28;20298;-63
2023/06/14 02:27:50;;;;;;;;;;;;;;;23.83;40.07;100803.06;4114040;28;19973;-63
2023/06/14 02:29:51;;;;;;;;;;;;;;;23.81;39.96;100803.22;4112782;28;19930;-63
2023/06/14 02:31:53;;;;;;;;;;;;;;;23.81;39.92;100811.28;4114006;28;19980;-62
2023/06/14 02:33:55;;;;;;;;;;;;;;;23.81;39.93;100807.75;4113839;28;19954;-62
2023/06/14 02:35:57;;;;;;;;;;;;;;;23.79;39.93;100802.50;4114201;28;19984;-63
2023/06/14 02:37:58;;;;;;;;;;;;;;;23.78;40.19;100808.88;4114103;28;19926;-62
2023/06/14 02:40:00;;;;;;;;;;;;;;;23.77;40.13;100805.34;4113004;28;19926;-63
2023/06/14 02:42:02;;;;;;;;;;;;;;;23.77;40.04;100812.56;4114073;28;19962;-63
2023/06/14 02:44:03;;;;;;;;;;;;;;;23.76;40.38;100806.31;4114037;28;19933;-63
2023/06/14 02:46:05;;;;;;;;;;;;;;;23.75;40.02;100807.31;4114025;28;19978;-63
2023/06/14 02:48:06;;;;;;;;;;;;;;;23.74;40.30;100813.69;4113605;28;19933;-62
2023/06/14 02:50:09;;;;;;;;;;;;;;;23.73;40.27;100812.00;4112787;28;19927;-63
2023/06/14 02:52:10;;;;;;;;;;;;;;;23.72;40.15;100810.28;4114047;28;20075;-63
2023/06/14 02:54:12;;;;;;;;;;;;;;;23.71;40.26;100813.94;4113761;28;19930;-63
2023/06/14 02:56:13;;;;;;;;;;;;;;;23.71;40.03;100810.44;4144861;28;19960;-63
2023/06/14 02:58:15;;;;;;;;;;;;;;;23.61;40.06;100802.34;4113751;28;19926;-63
2023/06/14 03:00:17;;;;;;;;;;;;;;;23.70;40.13;100819.47;4112847;28;19926;-63
2023/06/14 03:02:19;;;;;;;;;;;;;;;23.69;40.59;100817.78;4113915;28;20399;-63
2023/06/14 03:04:21;;;;;;;;;;;;;;;23.69;40.24;100820.44;4112414;28;19930;-63
2023/06/14 03:06:24;;;;;;;;;;;;;;;23.69;40.54;100818.59;4113037;28;20422;-63
2023/06/14 03:08:28;;;;;;;;;;;;;;;23.67;40.40;100817.03;4113823;28;19926;-63
2023/06/14 03:10:30;;;;;;;;;;;;;;;23.66;40.33;100821.59;4112956;28;19930;-63
2023/06/14 03:12:31;;;;;;;;;;;;;;;23.66;40.30;100820.72;4107177;28;20029;-63
2023/06/14 03:14:34;;;;;;;;;;;;;;;23.65;40.48;100822.56;4097754;29;19941;-63
2023/06/14 03:16:37;;;;;;;;;;;;;;;23.65;40.42;100827.94;4097573;28;19926;-63
2023/06/14 03:18:38;;;;;;;;;;;;;;;23.64;40.32;100828.91;4097389;28;20426;-63
2023/06/14 03:20:40;;;;;;;;;;;;;;;23.63;40.26;100832.59;4127822;28;19960;-63
2023/06/14 03:22:45;;;;;;;;;;;;;;;23.63;40.29;100829.91;4097444;28;19961;-63
2023/06/14 03:24:47;;;;;;;;;;;;;;;23.63;40.48;100839.81;4097822;28;19933;-63
2023/06/14 03:26:49;;;;;;;;;;;;;;;23.61;40.63;100838.09;4103301;28;20391;-63
2023/06/14 03:28:51;;;;;;;;;;;;;;;23.61;40.57;100840.78;4113400;28;19926;-63
2023/06/14 03:30:52;;;;;;;;;;;;;;;23.61;40.66;100842.63;4111551;28;19962;-64
2023/06/14 03:32:55;;;;;;;;;;;;;;;23.60;40.37;100843.59;4112575;28;20021;-63
2023/06/14 03:34:57;;;;;;;;;;;;;;;23.60;40.81;100848.97;4112829;28;20364;-64
2023/06/14 03:36:59;;;;;;;;;;;;;;;23.59;40.38;100856.16;4112805;28;19953;-64
2023/06/14 03:39:00;;;;;;;;;;;;;;;23.59;40.62;100849.97;4112083;28;19979;-64
2023/06/14 03:41:02;;;;;;;;;;;;;;;23.58;40.80;100848.25;4112385;28;19933;-63
2023/06/14 03:43:03;;;;;;;;;;;;;;;23.58;40.76;100851.78;4112602;28;19930;-63
2023/06/14 03:45:06;;;;;;;;;;;;;;;23.57;40.59;100854.59;4143791;28;19976;-63
2023/06/14 03:47:07;;;;;;;;;;;;;;;23.57;40.78;100854.59;4112382;28;19930;-63
2023/06/14 03:49:10;;;;;;;;;;;;;;;23.56;40.63;100859.16;4111724;28;20304;-64
2023/06/14 03:51:12;;;;;;;;;;;;;;;23.54;40.78;100858.41;4112345;28;20344;-64
2023/06/14 03:53:13;;;;;;;;;;;;;;;23.53;40.83;100858.56;4112636;28;20306;-64
2023/06/14 03:55:16;;;;;;;;;;;;;;;23.53;40.59;100856.72;4112766;28;19926;-63
2023/06/14 03:57:21;;;;;;;;;;;;;;;23.52;40.47;100865.75;4112532;28;19926;-63
2023/06/14 03:59:23;;;;;;;;;;;;;;;23.52;40.56;100860.38;4111697;28;19927;-63
2023/06/14 04:01:29;;;;;;;;;;;;;;;23.52;40.79;100865.75;4111779;28;19969;-64
2023/06/14 04:03:30;;;;;;;;;;;;;;;23.50;40.97;100867.75;4112585;28;19926;-63
2023/06/14 04:05:32;;;;;;;;;;;;;;;23.50;40.80;100870.44;4112469;28;19933;-63
2023/06/14 04:07:39;;;;;;;;;;;;;;;23.49;40.79;100867.84;4112540;28;20062;-63
2023/06/14 04:09:41;;;;;;;;;;;;;;;23.49;40.63;100862.50;4111570;28;20334;-63
2023/06/14 04:11:43;;;;;;;;;;;;;;;23.48;40.80;100867.03;4112308;28;19963;-63
2023/06/14 04:13:44;;;;;;;;;;;;;;;23.47;40.92;100872.53;4112451;28;19944;-63
2023/06/14 04:15:46;;;;;;;;;;;;;;;23.47;40.76;100865.31;4111858;28;20026;-63
2023/06/14 04:17:47;;;;;;;;;;;;;;;23.45;40.94;100868.16;4109761;28;19933;-62
2023/06/14 04:19:50;;;;;;;;;;;;;;;23.45;40.69;100876.19;4111119;28;20352;-63
2023/06/14 04:21:52;;;;;;;;;;;;;;;23.46;40.99;100877.03;4112276;28;19926;-63
2023/06/14 04:23:54;;;;;;;;;;;;;;;23.44;40.76;100881.72;4112440;28;20288;-63
2023/06/14 04:26:01;;;;;;;;;;;;;;;23.44;40.78;100889.75;4112199;28;20103;-64
2023/06/14 04:28:03;;;;;;;;;;;;;;;23.44;40.95;100881.72;4111931;28;20161;-65
2023/06/14 04:30:05;;;;;;;;;;;;;;;23.43;40.78;100888.88;4049450;28;1780342;-62
2023/06/14 04:32:09;;;;;;;;;;;;;;;23.43;40.88;100893.41;4112711;28;20303;-62
2023/06/14 04:34:16;;;;;;;;;;;;;;;23.42;41.03;100895.25;4112707;28;20021;-62
2023/06/14 04:36:18;;;;;;;;;;;;;;;23.42;40.78;100889.88;4112619;28;19934;-62
2023/06/14 04:38:24;;;;;;;;;;;;;;;23.41;40.95;100896.22;4111827;28;19972;-62
2023/06/14 04:40:26;;;;;;;;;;;;;;;23.41;41.05;100898.91;4111748;28;19977;-62
2023/06/14 04:42:30;;;;;;;;;;;;;;;23.41;41.17;100895.38;4112687;28;19933;-62
2023/06/14 04:44:32;;;;;;;;;;;;;;;23.39;40.86;100903.56;4112294;28;20032;-63
2023/06/14 04:46:45;;;;;;;;;;;;;;;23.40;41.13;100902.59;4112790;28;19934;-65
2023/06/14 04:48:47;;;;;;;;;;;;;;;23.39;40.89;100897.34;4112673;28;20441;-62
2023/06/14 04:50:52;;;;;;;;;;;;;;;23.39;40.98;100900.88;4111664;28;19961;-62
2023/06/14 04:52:54;;;;;;;;;;;;;;;23.39;41.06;100900.03;4112538;28;20025;-64
2023/06/14 04:54:56;;;;;;;;;;;;;;;23.39;40.98;100903.56;4112526;28;19926;-62
2023/06/14 04:56:58;;;;;;;;;;;;;;;23.38;40.88;100906.38;4112553;28;20405;-63
2023/06/14 04:58:59;;;;;;;;;;;;;;;23.39;40.78;100908.06;4112262;28;20352;-62
2023/06/14 05:01:02;;;;;;;;;;;;;;;23.38;41.11;100906.38;4111593;28;19926;-62
2023/06/14 05:03:05;;;;;;;;;;;;;;;23.37;40.90;100904.69;4112730;28;20274;-62
2023/06/14 05:05:07;;;;;;;;;;;;;;;23.37;40.97;100908.22;4110974;28;19929;-64
2023/06/14 05:07:09;;;;;;;;;;;;;;;23.37;41.17;100904.69;4112380;28;19927;-63
2023/06/14 05:09:14;;;;;;;;;;;;;;;23.37;41.22;100907.38;4112229;28;20024;-63
2023/06/14 05:11:16;;;;;;;;;;;;;;;23.36;40.85;100908.38;4111844;28;19973;-63
2023/06/14 05:13:19;;;;;;;;;;;;;;;23.36;40.94;100905.69;4112249;28;19926;-64
2023/06/14 05:15:25;;;;;;;;;;;;;;;23.34;41.04;100905.78;4112346;28;19926;-63
2023/06/14 05:17:27;;;;;;;;;;;;;;;23.35;40.91;100910.19;4112201;28;20288;-63
2023/06/14 05:19:29;;;;;;;;;;;;;;;23.34;41.00;100915.69;4111461;28;19955;-64
2023/06/14 05:21:33;;;;;;;;;;;;;;;23.34;41.38;100910.31;4112021;28;19926;-64
2023/06/14 05:23:41;;;;;;;;;;;;;;;23.33;40.98;100912.16;4112169;28;20418;-64
2023/06/14 05:25:44;;;;;;;;;;;;;;;23.33;41.04;100911.28;4112248;28;19934;-64
2023/06/14 05:27:45;;;;;;;;;;;;;;;23.33;41.14;100916.66;4111774;28;20134;-64
2023/06/14 05:29:47;;;;;;;;;;;;;;;23.32;41.32;100906.91;4113093;28;19937;-64
2023/06/14 05:31:48;;;;;;;;;;;;;;;23.32;40.99;100912.28;4114929;28;19949;-64
2023/06/14 05:33:50;;;;;;;;;;;;;;;23.32;40.93;100912.28;4114882;28;20017;-64
2023/06/14 05:35:52;;;;;;;;;;;;;;;23.31;40.94;100908.75;4115035;28;19957;-64
2023/06/14 05:37:53;;;;;;;;;;;;;;;23.31;40.90;100919.50;4114679;28;19927;-63
2023/06/14 05:39:55;;;;;;;;;;;;;;;23.31;40.98;100921.31;4114045;28;19949;-63
2023/06/14 05:41:56;;;;;;;;;;;;;;;23.31;41.27;100922.16;4114515;28;19934;-63
2023/06/14 05:43:59;;;;;;;;;;;;;;;23.31;40.88;100921.31;4114715;28;19926;-63
2023/06/14 05:46:01;;;;;;;;;;;;;;;23.29;40.95;100919.63;4114848;28;20013;-63
2023/06/14 05:48:03;;;;;;;;;;;;;;;23.28;41.22;100917.94;4114676;28;19980;-63
2023/06/14 05:50:05;;;;;;;;;;;;;;;23.29;40.90;100921.44;4113539;28;19930;-63
2023/06/14 05:52:07;;;;;;;;;;;;;;;23.29;41.25;100918.75;4114888;28;19926;-63
2023/06/14 05:54:08;;;;;;;;;;;;;;;23.28;41.04;100917.94;4114801;28;20304;-63
2023/06/14 05:56:10;;;;;;;;;;;;;;;23.28;41.02;100922.41;4114481;28;20304;-64
2023/06/14 05:58:13;;;;;;;;;;;;;;;23.28;41.28;100919.75;4114523;28;19926;-63
2023/06/14 06:00:15;;;;;;;;;;;;;;;23.27;41.18;100924.28;4113670;28;19938;-61
2023/06/14 06:02:17;;;;;;;;;;;;;;;23.27;40.89;100921.59;4114622;28;20021;-63
2023/06/14 06:04:19;;;;;;;;;;;;;;;23.26;41.15;100927.09;4114475;28;19927;-63
2023/06/14 06:06:21;;;;;;;;;;;;;;;23.25;41.14;100926.22;4114363;28;19979;-64
2023/06/14 06:08:22;;;;;;;;;;;;;;;23.25;41.15;100933.44;4114555;28;19965;-64
2023/06/14 06:10:24;;;;;;;;;;;;;;;23.23;40.98;100930.91;4113457;28;19936;-64
2023/06/14 06:12:26;;;;;;;;;;;;;;;23.23;41.01;100928.22;4114084;28;20000;-64
2023/06/14 06:14:27;;;;;;;;;;;;;;;23.23;40.93;100928.22;4145446;28;19933;-64
2023/06/14 06:16:28;;;;;;;;;;;;;;;23.23;41.32;100933.56;4114385;28;20005;-64
2023/06/14 06:18:30;;;;;;;;;;;;;;;23.23;40.94;100932.72;4114361;28;19965;-64
2023/06/14 06:20:32;;;;;;;;;;;;;;;23.23;41.10;100940.75;4113191;28;19969;-64
2023/06/14 06:22:34;;;;;;;;;;;;;;;23.22;41.18;100941.75;4114294;28;19926;-64
2023/06/14 06:24:35;;;;;;;;;;;;;;;23.23;40.91;100943.44;4197433;28;20405;-64
2023/06/14 06:26:38;;;;;;;;;;;;;;;23.23;41.35;100941.63;4113988;28;19933;-64
2023/06/14 06:28:40;;;;;;;;;;;;;;;23.23;40.99;100943.44;4114045;28;19991;-63
2023/06/14 06:30:42;;;;;;;;;;;;;;;23.23;41.25;100944.31;4112929;28;19926;-63
2023/06/14 06:32:43;;;;;;;;;;;;;;;23.24;40.86;100945.16;4114162;28;19992;-63
2023/06/14 06:34:45;;;;;;;;;;;;;;;23.24;41.03;100945.16;4114080;28;19976;-63
2023/06/14 06:36:46;;;;;;;;;;;;;;;23.22;41.25;100952.47;4114190;28;19933;-64
2023/06/14 06:38:48;;;;;;;;;;;;;;;23.23;40.97;100951.50;4114230;28;19926;-64
2023/06/14 06:40:49;;;;;;;;;;;;;;;23.23;41.11;100955.03;4111683;28;20093;-64
2023/06/14 06:42:51;;;;;;;;;;;;;;;23.24;40.99;100956.72;4114065;28;19926;-64
2023/06/14 06:44:53;;;;;;;;;;;;;;;23.25;40.79;100954.91;4113749;28;19926;-64
2023/06/14 06:46:54;;;;;;;;;;;;;;;23.26;41.20;100953.94;4113989;28;20284;-64
2023/06/14 06:48:56;;;;;;;;;;;;;;;23.26;40.99;100948.56;4113996;28;20015;-64
2023/06/14 06:50:57;;;;;;;;;;;;;;;23.27;41.11;100961.00;4112724;28;19932;-64
2023/06/14 06:52:59;;;;;;;;;;;;;;;23.27;40.90;100959.16;4113961;28;19958;-65
2023/06/14 06:55:02;;;;;;;;;;;;;;;23.28;40.83;100962.69;4113585;28;20311;-65
2023/06/14 06:57:03;;;;;;;;;;;;;;;23.29;40.81;100959.88;4112739;28;19926;-65
2023/06/14 06:59:06;;;;;;;;;;;;;;;23.32;41.00;100961.44;4113869;28;19934;-65
2023/06/14 07:01:09;;;;;;;;;;;;;;;23.34;40.85;100964.84;4113038;28;19933;-64
2023/06/14 07:03:11;;;;;;;;;;;;;;;23.37;41.04;100961.91;4113831;28;19933;-64
2023/06/14 07:05:13;;;;;;;;;;;;;;;23.39;40.97;100965.31;4114050;28;19934;-64
2023/06/14 07:07:15;;;;;;;;;;;;;;;23.41;40.77;100970.53;4113771;28;19930;-64
2023/06/14 07:09:18;;;;;;;;;;;;;;;23.43;40.71;100966.72;4113532;28;19927;-64
2023/06/14 07:11:19;;;;;;;;;;;;;;;23.45;40.77;100972.81;4112915;28;19930;-64
2023/06/14 07:13:21;;;;;;;;;;;;;;;23.49;40.63;100972.53;4112498;28;19932;-64
2023/06/14 07:15:23;;;;;;;;;;;;;;;23.52;40.71;100981.19;4113740;28;20017;-64
2023/06/14 07:17:24;;;;;;;;;;;;;;;23.54;40.63;100981.06;4113737;28;19933;-64
2023/06/14 07:19:26;;;;;;;;;;;;;;;23.56;40.70;100985.31;4113673;28;19926;-64
2023/06/14 07:21:27;;;;;;;;;;;;;;;23.57;40.16;100981.66;4112421;28;19926;-64
2023/06/14 07:23:29;;;;;;;;;;;;;;;23.59;40.19;100978.84;4113262;28;20388;-64
2023/06/14 07:25:30;;;;;;;;;;;;;;;23.62;40.32;100991.97;4113616;28;19926;-64
2023/06/14 07:27:32;;;;;;;;;;;;;;;23.63;40.42;100987.47;4113807;28;19956;-64
2023/06/14 07:29:34;;;;;;;;;;;;;;;23.65;40.12;100993.56;4113428;28;19968;-64
2023/06/14 07:31:35;;;;;;;;;;;;;;;23.65;40.12;100986.34;4112481;28;19937;-64
2023/06/14 07:33:36;;;;;;;;;;;;;;;23.67;40.02;100996.94;4113355;28;20344;-63
2023/06/14 07:35:38;;;;;;;;;;;;;;;23.67;39.80;100997.81;4113412;28;19930;-64
2023/06/14 07:37:43;;;;;;;;;;;;;;;23.69;39.81;100997.69;4113189;28;20018;-63
2023/06/14 07:39:44;;;;;;;;;;;;;;;23.70;40.11;101004.75;4112977;28;20410;-64
2023/06/14 07:41:46;;;;;;;;;;;;;;;23.70;40.07;101007.44;4112618;28;19969;-63
2023/06/14 07:43:47;;;;;;;;;;;;;;;23.70;39.98;101005.59;4113283;28;19930;-64
2023/06/14 07:45:49;;;;;;;;;;;;;;;23.72;39.96;101011.69;4113183;28;20000;-64
2023/06/14 07:48:07;;;;;;;;;;;;;;;23.72;39.76;101008.13;4113439;28;19926;-64
2023/06/14 07:50:09;;;;;;;;;;;;;;;23.71;39.82;101007.28;4112334;28;19926;-64
2023/06/14 07:52:11;;;;;;;;;;;;;;;23.71;39.86;101009.97;4112719;28;19979;-64
2023/06/14 07:54:13;;;;;;;;;;;;;;;23.73;39.59;101015.22;4113017;28;19926;-64
2023/06/14 07:56:15;;;;;;;;;;;;;;;23.73;39.29;101007.16;4113047;28;20029;-64
2023/06/14 07:58:17;;;;;;;;;;;;;;;23.73;40.00;101013.41;4113135;28;20315;-65
2023/06/14 08:00:20;;;;;;;;;;;;;;;23.73;39.82;101013.41;4112270;28;19930;-65
2023/06/14 08:02:21;;;;;;;;;;;;;;;23.74;39.41;101014.22;4113076;28;19991;-64
2023/06/14 08:04:24;;;;;;;;;;;;;;;23.74;39.70;101008.84;4113258;28;20380;-65
2023/06/14 08:06:26;;;;;;;;;;;;;;;23.74;39.80;101009.72;4113101;28;20001;-63
2023/06/14 08:08:28;;;;;;;;;;;;;;;23.74;39.87;101015.09;4112554;28;19926;-64
2023/06/14 08:10:30;;;;;;;;;;;;;;;23.74;39.81;101009.72;4112105;28;20415;-64
2023/06/14 08:12:32;;;;;;;;;;;;;;;23.77;39.54;101017.50;4112867;28;19926;-64
2023/06/14 08:14:34;;;;;;;;;;;;;;;23.77;39.69;101008.59;4112822;28;20362;-64
2023/06/14 08:16:35;;;;;;;;;;;;;;;23.79;39.02;101016.53;4112132;28;19934;-64
2023/06/14 08:18:37;;;;;;;;;;;;;;;23.79;39.38;101014.66;4111000;28;19933;-61
2023/06/14 08:20:39;;;;;;;;;;;;;;;23.91;41.28;101013.63;4111482;28;19933;-63
2023/06/14 08:22:42;;;;;;;;;;;;;;;23.97;40.35;101014.09;4112488;28;19926;-65
2023/06/14 08:24:44;;;;;;;;;;;;;;;23.93;40.28;101014.34;4113000;28;19997;-66
2023/06/14 08:26:46;;;;;;;;;;;;;;;23.94;39.54;101017.91;4112636;28;20356;-64
2023/06/14 08:28:47;;;;;;;;;;;;;;;23.93;39.78;101014.34;4112815;28;20411;-67
2023/06/14 08:30:49;;;;;;;;;;;;;;;24.00;40.62;101017.38;4111525;28;20104;-66
2023/06/14 08:32:51;;;;;;;;;;;;;;;24.15;40.27;101012.47;4112317;28;20017;-63
2023/06/14 08:35:12;;;;;;;;;;;;;;;24.18;39.58;101016.72;4122920;28;19926;-67
2023/06/14 08:37:14;;;;;;;;;;;;;;;24.16;39.22;101027.59;4166092;28;19926;-64
2023/06/14 08:39:15;;;;;;;;;;;;;;;24.17;39.48;101023.94;4096831;29;19930;-63
2023/06/14 08:41:20;;;;;;;;;;;;;;;24.19;38.87;101021.09;4116513;28;19932;-72
2023/06/14 08:43:22;;;;;;;;;;;;;;;24.29;40.10;101016.63;4112663;28;19949;-64
2023/06/14 08:45:25;;;;;;;;;;;;;;;24.44;40.23;101019.75;4112761;28;20017;-68
2023/06/14 08:47:36;;;;;;;;;;;;;;;24.63;39.41;101018.09;4112430;28;19932;-68
2023/06/14 08:49:45;;;;;;;;;;;;;;;24.71;39.08;101013.75;4121333;28;20172;-61
2023/06/14 08:51:51;;;;;;;;;;;;;;;24.80;39.00;101016.59;4111333;28;20024;-65
2023/06/14 08:53:57;;;;;;;;;;;;;;;24.88;38.99;101020.25;4112649;28;19930;-67
2023/06/14 08:56:04;;;;;;;;;;;;;;;24.98;38.50;101012.22;4111670;28;19927;-69
2023/06/14 08:58:09;;;;;;;;;;;;;;;24.97;38.59;101023.09;4112452;28;19977;-66
2023/06/14 09:00:14;;;;;;;;;;;;;;;24.99;38.54;101015.75;4111650;28;20017;-65
2023/06/14 09:02:19;;;;;;;;;;;;;;;25.01;38.21;101014.63;4112384;28;19934;-65
2023/06/14 09:04:29;;;;;;;;;;;;;;;25.03;38.26;101026.09;4113654;28;19971;-68
2023/06/14 09:06:31;;;;;;;;;;;;;;;25.04;37.77;101024.25;4117243;28;19926;-66
2023/06/14 09:08:33;;;;;;;;;;;;;;;25.08;38.18;101024.81;4112339;28;19926;-61
2023/06/14 09:10:37;;;;;;;;;;;;;;;25.12;37.85;101020.84;4114520;28;19926;-63
2023/06/14 09:12:39;;;;;;;;;;;;;;;25.14;37.20;101025.09;4115187;28;19930;-68
2023/06/14 09:14:42;;;;;;;;;;;;;;;25.15;35.95;101017.88;4115131;28;19934;-69
2023/06/14 09:16:43;;;;;;;;;;;;;;;25.14;36.58;101018.84;4114074;28;20358;-61
2023/06/14 09:18:47;;;;;;;;;;;;;;;25.14;36.23;101018.84;4111662;28;20438;-60
2023/06/14 09:20:49;;;;;;;;;;;;;;;25.20;35.95;101020.97;4097936;28;19979;-61
2023/06/14 09:22:51;;;;;;;;;;;;;;;25.13;35.37;101020.72;4102822;28;19958;-61
2023/06/14 09:24:53;;;;;;;;;;;;;;;25.02;32.35;101020.88;4162745;28;19931;-58
2023/06/14 09:26:55;;;;;;;;;;;;;;;25.04;32.07;101024.25;4166569;28;19934;-60
2023/06/14 09:28:57;;;;;;;;;;;;;;;25.10;33.46;101022.84;4131073;28;19926;-61
2023/06/14 09:31:00;;;;;;;;;;;;;;;25.14;33.94;101025.09;4133700;28;19940;-62
2023/06/14 09:33:02;;;;;;;;;;;;;;;25.10;32.36;101020.13;4113977;28;19945;-62
2023/06/14 09:35:06;;;;;;;;;;;;;;;25.13;31.91;101030.59;4114613;28;19948;-60
2023/06/14 09:37:08;;;;;;;;;;;;;;;25.10;31.42;101026.34;4113409;28;19930;-61
2023/06/14 09:39:10;;;;;;;;;;;;;;;25.11;30.66;101025.38;4114871;28;20020;-60
2023/06/14 09:41:11;;;;;;;;;;;;;;;25.04;30.62;101022.41;4160994;28;19929;-61
2023/06/14 09:43:13;;;;;;;;;;;;;;;25.07;30.04;101021.28;4114738;28;19930;-61
2023/06/14 09:45:19;;;;;;;;;;;;;;;24.85;29.01;101034.00;4114654;28;19934;-61
2023/06/14 09:47:21;;;;;;;;;;;;;;;24.87;29.43;101029.34;4114853;28;19949;-62
2023/06/14 09:49:25;;;;;;;;;;;;;;;24.95;29.76;101031.31;4114184;28;19926;-62
2023/06/14 09:51:27;;;;;;;;;;;;;;;24.95;29.74;101036.72;4113504;28;19934;-64
2023/06/14 09:53:29;;;;;;;;;;;;;;;24.93;29.21;101027.09;4114487;28;19926;-63
2023/06/14 09:55:34;;;;;;;;;;;;;;;24.88;28.90;101030.19;4114935;28;19926;-60
2023/06/14 09:57:37;;;;;;;;;;;;;;;24.86;29.14;101037.53;4123908;28;19977;-63
2023/06/14 09:59:47;;;;;;;;;;;;;;;24.82;28.72;101028.91;4130723;28;19955;-61
2023/06/14 10:01:49;;;;;;;;;;;;;;;24.90;29.12;101038.97;4129467;28;19932;-63
2023/06/14 10:03:54;;;;;;;;;;;;;;;24.93;28.63;101036.00;4129200;28;19983;-60
2023/06/14 10:06:08;;;;;;;;;;;;;;;24.95;28.94;101039.41;4130605;28;19932;-64
2023/06/14 10:08:13;;;;;;;;;;;;;;;24.93;28.38;101041.38;4115559;28;20351;-62
2023/06/14 10:10:14;;;;;;;;;;;;;;;24.93;28.15;101037.84;4108987;28;20418;-64
2023/06/14 10:12:21;;;;;;;;;;;;;;;24.94;28.37;101042.25;4120938;28;19930;-67
2023/06/14 10:14:23;;;;;;;;;;;;;;;24.93;27.71;101045.91;4106089;28;19926;-64
2023/06/14 10:16:42;;;;;;;;;;;;;;;24.90;27.21;101038.97;4098498;28;19966;-65
2023/06/14 10:18:46;;;;;;;;;;;;;;;24.83;26.63;101041.38;4106821;28;20388;-63
2023/06/14 10:20:52;;;;;;;;;;;;;;;24.76;26.23;101045.59;4113450;28;19927;-61
2023/06/14 10:22:58;;;;;;;;;;;;;;;24.76;26.65;101044.78;4114260;28;19926;-61
2023/06/14 10:25:01;;;;;;;;;;;;;;;24.76;26.85;101044.78;4113061;28;20339;-61
2023/06/14 10:27:02;;;;;;;;;;;;;;;24.76;26.60;101037.53;4106725;28;19927;-61
2023/06/14 10:29:08;;;;;;;;;;;;;;;24.85;26.69;101047.47;4098225;28;19930;-61